createdAt,value
2022-12-18T00:02:02.374Z,102911.16
2022-12-18T00:06:04.003Z,102912.69
2022-12-18T00:10:06.104Z,102909.84
2022-12-18T00:14:07.546Z,102909.72
2022-12-18T00:18:09.843Z,102917.66
2022-12-18T00:22:11.287Z,102918.16
2022-12-18T00:26:19.806Z,102918.69
2022-12-18T00:30:21.462Z,102928.00
2022-12-18T00:34:23.233Z,102933.44
2022-12-18T00:38:25.088Z,102924.78
2022-12-18T00:42:45.110Z,102932.22
2022-12-18T00:46:47.786Z,102933.31
2022-12-18T00:50:50.551Z,102932.13
2022-12-18T00:54:52.011Z,102928.13
2022-12-18T00:58:53.464Z,102923.25
2022-12-18T01:02:55.053Z,102932.09
2022-12-18T01:06:56.683Z,102933.91
2022-12-18T01:10:58.106Z,102938.59
2022-12-18T01:15:00.633Z,102941.94
2022-12-18T01:19:02.060Z,102958.78
2022-12-18T01:23:03.512Z,102968.72
2022-12-18T01:27:04.980Z,102974.03
2022-12-18T01:31:25.300Z,102976.97
2022-12-18T01:35:26.811Z,102965.81
2022-12-18T01:39:29.113Z,102972.56
2022-12-18T01:43:57.850Z,102972.03
2022-12-18T01:48:03.106Z,102974.59
2022-12-18T01:52:04.554Z,102966.16
2022-12-18T01:56:06.382Z,102964.06
2022-12-18T02:00:14.858Z,102964.38
2022-12-18T02:04:25.195Z,102972.97
2022-12-18T02:08:42.574Z,102975.00
2022-12-18T02:12:53.519Z,102971.09
2022-12-18T02:17:04.483Z,102962.97
2022-12-18T02:21:20.452Z,102946.94
2022-12-18T02:25:40.256Z,102946.53
2022-12-18T02:29:57.618Z,102946.97
2022-12-18T02:34:04.133Z,102939.06
2022-12-18T02:38:13.381Z,102949.69
2022-12-18T02:42:18.490Z,102970.31
2022-12-18T02:46:47.369Z,102966.00
2022-12-18T02:51:05.162Z,102952.81
2022-12-18T02:55:41.375Z,102940.88
2022-12-18T03:00:17.426Z,102948.41
2022-12-18T03:04:29.074Z,102958.00
2022-12-18T03:08:39.048Z,102990.09
2022-12-18T03:12:48.666Z,102996.84
2022-12-18T03:16:52.236Z,102972.34
2022-12-18T03:20:59.274Z,102975.75
2022-12-18T03:25:05.153Z,102980.81
2022-12-18T03:29:25.173Z,102990.75
2022-12-18T03:33:33.707Z,102988.16
2022-12-18T03:37:35.770Z,102995.97
2022-12-18T03:41:46.520Z,103005.00
2022-12-18T03:46:18.219Z,102998.41
2022-12-18T03:50:31.234Z,103007.69
2022-12-18T03:54:34.839Z,103012.84
2022-12-18T03:58:46.605Z,103017.66
2022-12-18T04:02:55.457Z,103034.66
2022-12-18T04:07:05.406Z,103028.66
2022-12-18T04:11:09.530Z,103031.75
2022-12-18T04:15:12.420Z,103038.72
2022-12-18T04:19:13.960Z,103033.13
2022-12-18T04:23:18.079Z,103031.28
2022-12-18T04:27:20.519Z,103034.66
2022-12-18T04:31:25.019Z,103036.81
2022-12-18T04:35:26.527Z,103034.69
2022-12-18T04:39:28.014Z,103028.03
2022-12-18T04:43:33.842Z,103024.16
2022-12-18T04:47:35.440Z,103026.53
2022-12-18T04:51:38.455Z,103014.13
2022-12-18T04:55:39.870Z,103008.25
2022-12-18T04:59:41.362Z,103010.13
2022-12-18T05:03:44.118Z,103021.38
2022-12-18T05:07:45.835Z,103028.00
2022-12-18T05:11:47.888Z,103047.38
2022-12-18T05:15:53.542Z,103049.41
2022-12-18T05:19:54.993Z,103048.59
2022-12-18T05:23:56.459Z,103059.19
2022-12-18T05:27:57.970Z,103055.94
2022-12-18T05:31:59.601Z,103040.75
2022-12-18T05:36:03.354Z,103043.88
2022-12-18T05:40:05.538Z,103053.50
2022-12-18T05:44:06.983Z,103059.13
2022-12-18T05:48:13.419Z,103060.00
2022-12-18T05:52:15.164Z,103049.56
2022-12-18T05:56:22.766Z,103049.09
2022-12-18T06:00:24.163Z,103049.44
2022-12-18T06:04:28.511Z,103058.47
2022-12-18T06:08:30.064Z,103065.53
2022-12-18T06:12:31.760Z,103069.06
2022-12-18T06:16:33.846Z,103079.22
2022-12-18T06:20:37.464Z,103074.94
2022-12-18T06:24:38.913Z,103061.72
2022-12-18T06:28:40.733Z,103069.41
2022-12-18T06:32:42.179Z,103078.47
2022-12-18T06:36:43.637Z,103073.69
2022-12-18T06:40:46.128Z,103085.84
2022-12-18T06:44:47.601Z,103092.06
2022-12-18T06:48:52.412Z,103089.09
2022-12-18T06:52:53.809Z,103085.88
2022-12-18T06:56:57.099Z,103082.09
2022-12-18T07:01:02.669Z,103081.44
2022-12-18T07:05:10.275Z,103079.63
2022-12-18T07:09:12.295Z,103068.22
2022-12-18T07:13:13.687Z,103078.13
2022-12-18T07:17:15.212Z,103077.31
2022-12-18T07:21:20.194Z,103093.69
2022-12-18T07:25:22.219Z,103103.44
2022-12-18T07:29:23.815Z,103107.25
2022-12-18T07:33:26.048Z,103106.09
2022-12-18T07:37:28.056Z,103098.66
2022-12-18T07:41:29.574Z,103120.00
2022-12-18T07:45:31.161Z,103126.38
2022-12-18T07:49:32.726Z,103122.16
2022-12-18T07:53:35.449Z,103130.78
2022-12-18T07:57:56.379Z,103140.66
2022-12-18T08:01:58.379Z,103142.09
2022-12-18T08:06:02.008Z,103143.03
2022-12-18T08:10:03.784Z,103149.03
2022-12-18T08:14:05.557Z,103137.47
2022-12-18T08:18:10.177Z,103139.84
2022-12-18T08:22:15.389Z,103135.56
2022-12-18T08:26:17.274Z,103151.91
2022-12-18T08:30:18.999Z,103151.91
2022-12-18T08:34:20.866Z,103148.13
2022-12-18T08:38:24.210Z,103155.19
2022-12-18T08:42:44.804Z,103161.13
2022-12-18T08:46:46.304Z,103166.97
2022-12-18T08:50:58.114Z,103165.84
2022-12-18T08:54:59.706Z,103164.66
2022-12-18T08:59:01.254Z,103175.47
2022-12-18T09:03:03.023Z,103179.78
2022-12-18T09:07:04.450Z,103178.53
2022-12-18T09:11:13.629Z,103174.75
2022-12-18T09:15:15.105Z,103176.88
2022-12-18T09:19:17.311Z,103180.25
2022-12-18T09:23:18.744Z,103179.59
2022-12-18T09:27:20.245Z,103170.53
2022-12-18T09:31:24.352Z,103171.06
2022-12-18T09:35:25.890Z,103177.66
2022-12-18T09:39:27.334Z,103178.56
2022-12-18T09:44:00.487Z,103184.38
2022-12-18T09:48:02.672Z,103173.94
2022-12-18T09:52:10.177Z,103165.69
2022-12-18T09:56:19.255Z,103169.59
2022-12-18T10:00:23.376Z,103164.31
2022-12-18T10:04:26.013Z,103164.66
2022-12-18T10:08:39.091Z,103163.59
2022-12-18T10:13:00.989Z,103161.34
2022-12-18T10:17:43.047Z,103153.56
2022-12-18T10:21:50.409Z,103156.72
2022-12-18T10:26:05.090Z,103146.13
2022-12-18T10:30:18.393Z,103153.16
2022-12-18T10:34:19.909Z,103156.19
2022-12-18T10:38:27.311Z,103163.59
2022-12-18T10:42:30.135Z,103156.66
2022-12-18T10:46:31.680Z,103158.28
2022-12-18T10:51:09.050Z,103145.53
2022-12-18T10:55:02.638Z,103156.59
2022-12-18T10:59:06.767Z,103154.88
2022-12-18T11:03:31.069Z,103154.31
2022-12-18T11:07:59.529Z,103148.75
2022-12-18T11:12:07.153Z,103144.47
2022-12-18T11:16:08.715Z,103141.75
2022-12-18T11:20:32.600Z,103131.00
2022-12-18T11:24:37.631Z,103135.28
2022-12-18T11:28:44.741Z,103143.25
2022-12-18T11:32:50.749Z,103146.25
2022-12-18T11:36:53.195Z,103145.13
2022-12-18T11:41:04.639Z,103145.00
2022-12-18T11:45:12.305Z,103158.94
2022-12-18T11:49:20.983Z,103150.34
2022-12-18T11:53:23.492Z,103151.31
2022-12-18T11:57:43.369Z,103154.78
2022-12-18T12:01:52.376Z,103140.84
2022-12-18T12:06:08.977Z,103152.22
2022-12-18T12:10:28.347Z,103153.88
2022-12-18T12:15:07.597Z,103145.13
2022-12-18T12:19:43.833Z,103146.53
2022-12-18T12:24:06.164Z,103150.81
2022-12-18T12:28:20.222Z,103145.63
2022-12-18T12:32:34.418Z,103140.34
2022-12-18T12:36:38.606Z,103142.91
2022-12-18T12:40:56.634Z,103128.06
2022-12-18T12:45:06.714Z,103135.97
2022-12-18T12:49:16.517Z,103138.59
2022-12-18T12:53:30.042Z,103148.88
2022-12-18T12:57:44.089Z,103150.13
2022-12-18T13:02:13.096Z,103153.78
2022-12-18T13:06:44.287Z,103141.09
2022-12-18T13:10:46.097Z,103130.16
2022-12-18T13:14:47.525Z,103131.34
2022-12-18T13:18:55.250Z,103119.88
2022-12-18T13:22:57.019Z,103123.06
2022-12-18T13:26:58.548Z,103113.47
2022-12-18T13:31:03.426Z,103099.47
2022-12-18T13:35:23.027Z,103089.94
2022-12-18T13:39:35.356Z,103094.53
2022-12-18T13:43:45.137Z,103081.94
2022-12-18T13:47:46.840Z,103078.56
2022-12-18T13:51:51.627Z,103075.75
2022-12-18T13:55:54.160Z,103066.69
2022-12-18T13:59:56.712Z,103064.00
2022-12-18T14:04:22.053Z,103060.91
2022-12-18T14:08:24.452Z,103068.63
2022-12-18T14:12:49.291Z,103075.84
2022-12-18T14:16:51.445Z,103070.66
2022-12-18T14:20:57.681Z,103068.19
2022-12-18T14:25:29.077Z,103062.16
2022-12-18T14:29:31.943Z,103073.38
2022-12-18T14:33:33.387Z,103048.31
2022-12-18T14:37:34.807Z,103034.72
2022-12-18T14:41:36.298Z,103027.97
2022-12-18T14:45:45.407Z,103026.22
2022-12-18T14:49:47.500Z,103017.97
2022-12-18T14:53:55.948Z,103027.75
2022-12-18T14:57:58.483Z,103032.81
2022-12-18T15:02:27.686Z,103029.25
2022-12-18T15:06:33.220Z,103050.44
2022-12-18T15:10:35.412Z,103056.41
2022-12-18T15:14:41.924Z,103066.88
2022-12-18T15:18:46.100Z,103058.84
2022-12-18T15:22:48.233Z,103062.56
2022-12-18T15:26:49.934Z,103050.31
2022-12-18T15:31:01.152Z,103039.75
2022-12-18T15:35:11.873Z,103035.88
2022-12-18T15:39:14.057Z,103039.88
2022-12-18T15:43:34.203Z,103057.03
2022-12-18T15:47:35.629Z,103061.31
2022-12-18T15:51:38.197Z,103058.78
2022-12-18T15:56:01.172Z,103055.59
2022-12-18T16:00:03.156Z,103052.78
2022-12-18T16:04:06.498Z,103053.09
2022-12-18T16:08:07.986Z,103043.72
2022-12-18T16:12:21.919Z,103045.50
2022-12-18T16:16:23.389Z,103052.69
2022-12-18T16:20:25.583Z,103052.13
2022-12-18T16:24:32.223Z,103043.25
2022-12-18T16:28:33.667Z,103034.06
2022-12-18T16:32:35.153Z,103029.59
2022-12-18T16:36:36.572Z,103033.44
2022-12-18T16:40:59.173Z,103041.09
2022-12-18T16:45:01.356Z,103040.84
2022-12-18T16:49:02.948Z,103024.41
2022-12-18T16:53:04.361Z,103018.00
2022-12-18T16:57:05.779Z,103021.13
2022-12-18T17:01:11.544Z,103016.63
2022-12-18T17:05:13.164Z,103006.19
2022-12-18T17:09:20.629Z,103003.69
2022-12-18T17:13:27.495Z,103006.41
2022-12-18T17:17:29.004Z,103000.59
2022-12-18T17:21:30.848Z,103000.75
2022-12-18T17:25:32.462Z,102993.44
2022-12-18T17:29:34.326Z,102987.22
2022-12-18T17:33:35.738Z,102974.53
2022-12-18T17:37:37.259Z,102966.06
2022-12-18T17:41:39.097Z,102989.47
2022-12-18T17:45:41.240Z,102987.56
2022-12-18T17:49:42.753Z,102981.16
2022-12-18T17:53:45.214Z,102975.69
2022-12-18T17:57:46.685Z,102957.88
2022-12-18T18:01:48.733Z,102960.53
2022-12-18T18:05:56.107Z,102947.56
2022-12-18T18:09:57.625Z,102953.13
2022-12-18T18:14:02.744Z,102949.63
2022-12-18T18:18:04.254Z,102948.88
2022-12-18T18:22:05.697Z,102942.59
2022-12-18T18:26:09.273Z,102930.00
2022-12-18T18:30:11.399Z,102918.34
2022-12-18T18:34:24.220Z,102916.13
2022-12-18T18:38:25.682Z,102927.63
2022-12-18T18:42:27.195Z,102927.94
2022-12-18T18:46:28.811Z,102927.09
2022-12-18T18:50:30.252Z,102920.88
2022-12-18T18:54:31.780Z,102913.94
2022-12-18T18:58:33.596Z,102907.38
2022-12-18T19:02:35.316Z,102904.59
2022-12-18T19:06:36.814Z,102888.44
2022-12-18T19:10:40.671Z,102879.56
2022-12-18T19:14:42.694Z,102877.38
2022-12-18T19:18:45.023Z,102872.00
2022-12-18T19:22:55.282Z,102871.81
2022-12-18T19:26:58.253Z,102867.81
2022-12-18T19:31:02.192Z,102860.53
2022-12-18T19:35:03.955Z,102861.44
2022-12-18T19:39:12.645Z,102855.06
2022-12-18T19:43:14.614Z,102854.03
2022-12-18T19:47:16.198Z,102855.13
2022-12-18T19:51:23.051Z,102874.16
2022-12-18T19:55:24.574Z,102872.50
2022-12-18T19:59:26.322Z,102876.25
2022-12-18T20:03:32.372Z,102863.97
2022-12-18T20:07:34.418Z,102857.94
2022-12-18T20:11:36.915Z,102862.88
2022-12-18T20:15:45.430Z,102863.88
2022-12-18T20:19:47.157Z,102856.03
2022-12-18T20:23:48.975Z,102851.69
2022-12-18T20:27:50.640Z,102844.13
2022-12-18T20:31:52.626Z,102843.69
2022-12-18T20:35:54.668Z,102819.78
2022-12-18T20:39:56.774Z,102819.59
2022-12-18T20:43:59.074Z,102817.69
2022-12-18T20:48:01.562Z,102807.97
2022-12-18T20:52:03.134Z,102787.28
2022-12-18T20:56:09.709Z,102779.34
2022-12-18T21:00:12.285Z,102783.81
2022-12-18T21:04:14.788Z,102771.47
2022-12-18T21:08:21.839Z,102765.88
2022-12-18T21:12:40.556Z,102770.81
2022-12-18T21:16:46.252Z,102768.47
2022-12-18T21:20:47.762Z,102745.78
2022-12-18T21:24:49.443Z,102746.78
2022-12-18T21:28:56.071Z,102719.00
2022-12-18T21:32:57.494Z,102714.41
2022-12-18T21:37:00.327Z,102721.13
2022-12-18T21:41:09.188Z,102716.72
2022-12-18T21:45:12.062Z,102709.50
2022-12-18T21:49:14.897Z,102707.81
2022-12-18T21:53:16.359Z,102696.63
2022-12-18T21:57:18.599Z,102677.91
2022-12-18T22:01:20.116Z,102673.63
2022-12-18T22:05:21.573Z,102662.88
2022-12-18T22:09:25.087Z,102660.16
2022-12-18T22:13:26.487Z,102645.84
2022-12-18T22:17:27.962Z,102639.63
2022-12-18T22:21:34.509Z,102643.66
2022-12-18T22:25:39.690Z,102628.59
2022-12-18T22:30:00.252Z,102624.47
2022-12-18T22:34:02.171Z,102623.44
2022-12-18T22:38:03.916Z,102608.31
2022-12-18T22:42:06.407Z,102601.47
2022-12-18T22:46:17.438Z,102594.03
2022-12-18T22:50:19.104Z,102578.59
2022-12-18T22:54:21.525Z,102567.66
2022-12-18T22:58:22.959Z,102564.34
2022-12-18T23:02:24.517Z,102542.25
2022-12-18T23:06:28.177Z,102535.69
2022-12-18T23:10:29.598Z,102515.38
2022-12-18T23:14:31.774Z,102509.31
2022-12-18T23:18:33.955Z,102504.25
2022-12-18T23:22:35.358Z,102486.38
2022-12-18T23:26:36.966Z,102479.41
2022-12-18T23:30:38.421Z,102475.28
2022-12-18T23:34:39.857Z,102467.59
2022-12-18T23:38:41.621Z,102448.28
2022-12-18T23:42:43.180Z,102430.50
2022-12-18T23:46:44.621Z,102420.25
2022-12-18T23:50:46.368Z,102419.78
2022-12-18T23:54:47.781Z,102420.00
2022-12-18T23:58:52.113Z,102410.50
